Time;durP1;ratioP1;P1;durP2;ratioP2;P2;SDS_P1;SDS_P2;PMS_P1;PMS_P2;Temp;Humidity;BMP_temperature;BMP_pressure;BME280_temperature;BME280_humidity;BME280_pressure;Samples;Min_cycle;Max_cycle;Signal;HPM_P1;HPM_P2
2023/10/21 00:00:33;;;;;;;;;5.60;5.20;;;;;22.06;29.12;98078.59;5065159;28;8982;-69
2023/10/21 00:03:22;;;;;;;;;8.60;6.20;;;;;22.09;28.91;98079.16;5065523;28;8836;-67
2023/10/21 00:05:52;;;;;;;;;9.00;7.00;;;;;22.10;29.04;98085.34;5065235;28;8920;-70
2023/10/21 00:08:21;;;;;;;;;8.00;6.60;;;;;22.09;28.69;98099.69;5063750;28;8868;-68
2023/10/21 00:10:50;;;;;;;;;6.40;6.20;;;;;22.08;29.02;98087.31;5054270;28;8846;-66
2023/10/21 00:13:20;;;;;;;;;1.20;0.40;;;;;22.14;28.96;98084.06;5066606;28;8847;-68
2023/10/21 00:15:49;;;;;;;;;10.20;7.20;;;;;22.29;28.63;98093.38;5067581;28;8951;-67
2023/10/21 00:18:18;;;;;;;;;7.40;5.60;;;;;22.30;28.66;98081.69;5032875;28;10023;-67
2023/10/21 00:20:46;;;;;;;;;7.60;6.80;;;;;22.39;28.67;98085.31;5067622;28;10311;-69
2023/10/21 00:23:15;;;;;;;;;7.60;6.80;;;;;22.43;28.45;98076.03;5067851;28;8904;-69
2023/10/21 00:25:44;;;;;;;;;8.40;7.80;;;;;22.26;28.82;98079.44;5065059;28;9464;-69
2023/10/21 00:28:13;;;;;;;;;8.40;6.60;;;;;22.25;28.57;98085.75;5067861;28;8986;-66
2023/10/21 00:30:45;;;;;;;;;6.00;5.40;;;;;22.27;28.64;98090.00;5067506;28;8846;-69
2023/10/21 00:33:15;;;;;;;;;7.20;6.60;;;;;22.17;28.72;98084.63;5066413;28;8873;-67
2023/10/21 00:35:47;;;;;;;;;5.80;5.80;;;;;22.19;28.67;98085.31;5066555;28;8869;-67
2023/10/21 00:38:16;;;;;;;;;8.40;7.20;;;;;22.34;28.55;98091.13;5066184;28;8873;-68
2023/10/21 00:40:55;;;;;;;;;6.00;4.80;;;;;22.44;28.27;98093.78;5065406;28;8866;-68
2023/10/21 00:43:35;;;;;;;;;14.60;8.00;;;;;22.36;28.17;98109.72;5066995;28;8838;-68
2023/10/21 00:46:10;;;;;;;;;6.00;3.80;;;;;22.23;28.44;98099.28;5066325;28;8865;-69
2023/10/21 00:48:40;;;;;;;;;8.60;6.00;;;;;22.34;28.09;98082.25;5066247;28;8831;-67
2023/10/21 00:51:10;;;;;;;;;11.80;8.40;;;;;22.35;28.13;98081.25;5078830;28;8853;-68
2023/10/21 00:53:40;;;;;;;;;5.60;5.00;;;;;22.25;27.90;98075.91;5032976;28;8830;-70
2023/10/21 00:56:10;;;;;;;;;7.40;6.20;;;;;22.46;28.11;98078.41;5015746;28;8988;-69
2023/10/21 00:58:40;;;;;;;;;8.00;5.60;;;;;22.46;27.88;98080.25;5086974;28;8931;-67
2023/10/21 01:01:13;;;;;;;;;6.40;6.00;;;;;22.72;27.48;98067.91;5069565;28;8858;-68
2023/10/21 01:03:43;;;;;;;;;7.40;7.20;;;;;22.60;27.56;98080.66;5070146;28;8862;-67
2023/10/21 01:06:12;;;;;;;;;7.00;6.00;;;;;22.77;27.52;98073.69;5051974;28;8858;-67
2023/10/21 01:08:41;;;;;;;;;7.60;7.60;;;;;22.80;27.43;98076.06;5069805;28;8870;-69
2023/10/21 01:11:10;;;;;;;;;6.00;4.80;;;;;22.77;27.43;98070.19;5020247;28;8851;-70
2023/10/21 01:13:43;;;;;;;;;4.80;4.80;;;;;22.78;27.35;98067.31;5064049;28;9655;-70
2023/10/21 01:16:13;;;;;;;;;6.60;6.60;;;;;22.89;27.27;98068.19;5050004;28;8881;-67
2023/10/21 01:18:41;;;;;;;;;6.80;5.80;;;;;23.01;27.06;98077.72;5066389;28;8868;-68
2023/10/21 01:21:11;;;;;;;;;6.00;4.00;;;;;23.09;27.18;98067.09;5050639;28;8837;-67
2023/10/21 01:23:42;;;;;;;;;8.60;6.60;;;;;23.00;26.90;98066.16;5051019;28;8879;-67
2023/10/21 01:26:11;;;;;;;;;7.60;7.60;;;;;23.00;26.80;98065.31;5065997;28;9618;-67
2023/10/21 01:28:41;;;;;;;;;4.40;4.40;;;;;22.98;26.68;98064.63;5059931;28;8917;-71
2023/10/21 01:31:09;;;;;;;;;7.00;5.60;;;;;22.93;26.74;98073.09;5067729;28;8847;-67
2023/10/21 01:33:38;;;;;;;;;9.80;6.20;;;;;22.87;27.13;98070.97;5068054;28;8831;-67
2023/10/21 01:36:07;;;;;;;;;6.20;5.00;;;;;22.52;27.73;98063.59;5018156;28;8867;-68
2023/10/21 01:38:37;;;;;;;;;7.40;6.60;;;;;22.58;27.64;98061.19;5067925;28;8855;-67
2023/10/21 01:41:10;;;;;;;;;7.60;6.80;;;;;22.66;27.69;98062.31;5067736;28;8914;-68
2023/10/21 01:43:39;;;;;;;;;7.00;6.00;;;;;22.59;27.79;98043.28;5065662;28;8865;-65
2023/10/21 01:46:08;;;;;;;;;9.60;8.80;;;;;22.39;28.21;98038.00;5018765;28;8860;-66
2023/10/21 01:48:37;;;;;;;;;8.80;6.80;;;;;22.53;28.09;98034.00;5051453;28;8898;-68
2023/10/21 01:51:06;;;;;;;;;8.80;7.80;;;;;22.30;28.40;98051.41;5051064;28;8855;-66
2023/10/21 01:53:35;;;;;;;;;11.00;8.40;;;;;22.50;28.06;98045.00;5067658;28;8915;-68
2023/10/21 01:56:05;;;;;;;;;7.00;7.00;;;;;22.60;27.92;98047.66;5068031;28;8863;-68
2023/10/21 01:58:36;;;;;;;;;4.00;4.00;;;;;22.53;27.87;98062.63;5049232;28;8828;-70
2023/10/21 02:01:11;;;;;;;;;8.80;6.00;;;;;22.56;27.66;98067.66;5066215;28;8993;-68
2023/10/21 02:03:41;;;;;;;;;5.00;4.00;;;;;22.67;27.83;98069.34;5067243;28;8848;-70
2023/10/21 02:06:10;;;;;;;;;3.20;2.80;;;;;22.73;27.50;98063.41;5017767;28;8835;-67
2023/10/21 02:08:39;;;;;;;;;9.60;7.40;;;;;22.79;27.58;98069.03;5034269;28;8906;-67
2023/10/21 02:11:08;;;;;;;;;10.20;6.00;;;;;22.94;27.61;98072.09;5069037;28;8931;-67
2023/10/21 02:13:39;;;;;;;;;8.40;6.20;;;;;23.02;27.63;98068.69;5035003;28;8858;-68
2023/10/21 02:16:10;;;;;;;;;6.80;6.80;;;;;22.60;28.09;98099.41;5067787;28;8888;-70
2023/10/21 02:18:39;;;;;;;;;8.80;7.80;;;;;22.51;28.34;98099.41;5050940;28;8845;-70
2023/10/21 02:21:08;;;;;;;;;7.80;6.00;;;;;22.21;29.09;98106.59;5050310;28;8857;-68
2023/10/21 02:23:37;;;;;;;;;7.60;7.60;;;;;22.44;28.79;98114.38;5066697;28;8848;-68
2023/10/21 02:26:07;;;;;;;;;8.20;7.20;;;;;22.57;28.70;98110.38;5017635;28;9016;-68
2023/10/21 02:28:36;;;;;;;;;6.40;6.40;;;;;22.56;28.53;98111.38;5069622;28;8881;-67
2023/10/21 02:31:06;;;;;;;;;6.60;6.20;;;;;22.72;28.34;98112.63;5069662;28;8842;-67
2023/10/21 02:33:35;;;;;;;;;5.20;5.20;;;;;22.85;28.26;98121.19;5012236;28;8845;-68
2023/10/21 02:36:04;;;;;;;;;8.60;6.80;;;;;23.02;28.16;98116.09;5049966;28;8837;-65
2023/10/21 02:38:37;;;;;;;;;7.00;5.60;;;;;22.90;28.10;98129.66;5058456;28;8834;-70
2023/10/21 02:41:06;;;;;;;;;5.60;4.40;;;;;22.98;28.04;98121.72;5068365;28;8882;-66
2023/10/21 02:43:35;;;;;;;;;4.00;3.20;;;;;23.09;27.71;98127.88;5066474;28;8836;-69
2023/10/21 02:46:09;;;;;;;;;6.00;5.00;;;;;23.21;27.66;98126.72;5066833;28;8895;-69
2023/10/21 02:48:38;;;;;;;;;6.00;5.00;;;;;23.22;27.50;98131.06;5064440;28;8848;-71
2023/10/21 02:51:11;;;;;;;;;6.60;6.60;;;;;23.29;27.76;98136.72;5049960;28;8860;-71
2023/10/21 02:53:41;;;;;;;;;8.20;7.00;;;;;23.11;28.12;98125.91;5066304;28;8859;-67
2023/10/21 02:56:10;;;;;;;;;6.20;3.40;;;;;23.23;27.90;98124.75;5083667;28;8986;-68
2023/10/21 02:58:40;;;;;;;;;9.80;6.00;;;;;22.94;28.32;98127.50;5017129;28;8876;-69
2023/10/21 03:01:15;;;;;;;;;9.60;7.40;;;;;22.91;28.22;98119.78;5032706;28;8860;-68
2023/10/21 03:03:45;;;;;;;;;7.80;7.80;;;;;22.96;28.47;98147.00;5047323;28;8828;-68
2023/10/21 03:06:16;;;;;;;;;9.80;7.20;;;;;22.51;29.05;98139.59;5066023;28;8832;-70
2023/10/21 03:08:46;;;;;;;;;7.20;5.40;;;;;22.61;28.90;98145.75;5066249;28;8852;-67
2023/10/21 03:11:15;;;;;;;;;8.80;8.60;;;;;22.36;28.98;98140.00;5049671;28;8820;-69
2023/10/21 03:13:45;;;;;;;;;9.00;8.00;;;;;22.42;29.03;98135.91;5082783;28;8836;-69
2023/10/21 03:16:15;;;;;;;;;21.75;19.75;;;;;22.63;29.00;98130.38;5049313;28;8870;-69
2023/10/21 03:18:45;;;;;;;;;7.40;6.60;;;;;22.67;28.77;98125.59;5064248;28;8862;-69
2023/10/21 03:21:15;;;;;;;;;9.20;6.20;;;;;22.36;29.18;98133.81;5048540;28;8865;-67
2023/10/21 03:23:45;;;;;;;;;7.00;7.00;;;;;22.34;29.39;98139.31;5001074;28;8838;-67
2023/10/21 03:26:13;;;;;;;;;8.60;7.20;;;;;22.25;29.79;98133.94;5068514;28;8941;-69
2023/10/21 03:28:43;;;;;;;;;6.20;5.80;;;;;22.34;29.40;98142.00;5068443;28;8873;-66
2023/10/21 03:31:13;;;;;;;;;8.20;6.20;;;;;22.27;29.53;98148.06;5068122;28;9703;-69
2023/10/21 03:33:44;;;;;;;;;12.40;8.00;;;;;22.08;30.26;98139.00;5063172;28;8845;-67
2023/10/21 03:36:13;;;;;;;;;8.00;7.00;;;;;22.12;30.06;98145.75;5063584;28;8873;-68
2023/10/21 03:38:43;;;;;;;;;7.60;6.60;;;;;22.05;30.29;98149.97;5048167;28;8876;-67
2023/10/21 03:41:13;;;;;;;;;8.00;8.00;;;;;22.09;29.84;98150.53;5063419;28;8903;-70
2023/10/21 03:43:42;;;;;;;;;7.80;7.20;;;;;22.07;30.16;98148.03;5080096;28;9651;-67
2023/10/21 03:46:14;;;;;;;;;9.00;6.20;;;;;21.93;30.27;98151.09;5067445;28;8907;-68
2023/10/21 03:48:46;;;;;;;;;8.00;6.80;;;;;22.02;30.44;98159.13;5083100;28;8875;-65
2023/10/21 03:51:15;;;;;;;;;8.40;8.00;;;;;21.99;30.23;98139.81;5079198;28;8926;-69
2023/10/21 03:53:44;;;;;;;;;7.60;6.40;;;;;21.94;30.52;98156.31;5045965;28;8916;-67
2023/10/21 03:56:13;;;;;;;;;9.60;7.00;;;;;22.06;30.24;98145.47;5053760;28;8943;-67
2023/10/21 03:58:42;;;;;;;;;7.00;6.00;;;;;22.16;30.40;98136.44;5068369;28;8877;-71
2023/10/21 04:01:11;;;;;;;;;9.40;6.20;;;;;22.03;30.61;98147.44;5066570;28;8866;-68
2023/10/21 04:03:40;;;;;;;;;9.20;6.60;;;;;21.97;30.83;98137.28;5066940;28;9619;-68
2023/10/21 04:06:12;;;;;;;;;7.20;6.60;;;;;22.03;30.56;98138.56;5033110;28;8858;-69
2023/10/21 04:08:41;;;;;;;;;7.00;7.00;;;;;22.05;30.72;98136.59;5067760;28;8850;-67
2023/10/21 04:11:09;;;;;;;;;7.20;6.80;;;;;22.07;30.58;98141.81;5068173;28;9001;-67
2023/10/21 04:13:38;;;;;;;;;9.00;7.80;;;;;22.10;30.79;98147.72;5066621;28;8834;-68
2023/10/21 04:16:07;;;;;;;;;6.00;4.40;;;;;22.11;31.04;98138.72;5067900;28;8881;-68
2023/10/21 04:18:36;;;;;;;;;9.40;8.60;;;;;22.13;30.88;98135.91;5066577;28;8830;-68
2023/10/21 04:21:05;;;;;;;;;8.60;7.60;;;;;22.18;31.13;98145.22;5067565;28;8870;-67
2023/10/21 04:23:36;;;;;;;;;10.20;8.40;;;;;22.08;31.39;98144.34;5068085;28;8819;-68
2023/10/21 04:26:06;;;;;;;;;7.20;6.40;;;;;22.16;31.34;98154.34;5067750;28;8887;-66
2023/10/21 04:28:35;;;;;;;;;7.00;3.40;;;;;22.21;31.42;98160.97;5067917;28;8974;-69
2023/10/21 04:31:04;;;;;;;;;6.80;6.40;;;;;22.28;31.35;98163.09;5068562;28;8904;-68
2023/10/21 04:33:33;;;;;;;;;6.20;6.00;;;;;22.18;31.44;98155.91;5019000;28;8880;-69
2023/10/21 04:36:01;;;;;;;;;7.80;7.00;;;;;22.10;31.81;98161.09;5053113;28;9603;-69
2023/10/21 04:38:30;;;;;;;;;5.40;5.00;;;;;22.16;31.50;98163.22;5071840;28;9584;-68
2023/10/21 04:41:00;;;;;;;;;9.60;7.00;;;;;22.15;31.51;98163.38;5071573;28;8851;-70
2023/10/21 04:43:29;;;;;;;;;7.20;7.20;;;;;22.24;31.50;98175.94;5071672;28;9619;-68
2023/10/21 04:45:58;;;;;;;;;9.20;9.20;;;;;22.23;31.62;98176.91;5070347;28;8854;-69
2023/10/21 04:48:27;;;;;;;;;9.80;7.60;;;;;22.30;31.51;98167.34;5069969;28;8858;-68
2023/10/21 04:50:56;;;;;;;;;6.20;5.60;;;;;22.33;31.31;98175.09;5071713;28;8842;-68
2023/10/21 04:53:25;;;;;;;;;8.40;6.00;;;;;22.31;31.56;98165.50;5071068;28;8903;-68
2023/10/21 04:55:53;;;;;;;;;8.40;6.80;;;;;22.19;31.31;98167.47;5071417;28;8985;-68
2023/10/21 04:58:24;;;;;;;;;4.00;1.80;;;;;22.30;31.38;98145.94;5071207;28;8935;-70
2023/10/21 05:00:52;;;;;;;;;7.20;6.20;;;;;22.18;31.39;98147.88;5070716;28;8870;-70
2023/10/21 05:03:22;;;;;;;;;9.20;6.00;;;;;22.23;31.30;98142.94;5069660;28;8838;-68
2023/10/21 05:05:51;;;;;;;;;8.40;7.20;;;;;22.27;31.26;98159.59;5071339;28;8839;-77
2023/10/21 05:08:20;;;;;;;;;8.20;6.00;;;;;22.21;31.36;98160.97;5071644;28;8865;-78
2023/10/21 05:10:49;;;;;;;;;6.60;6.00;;;;;22.30;31.33;98161.16;5071647;28;9601;-80
2023/10/21 05:13:18;;;;;;;;;7.80;5.80;;;;;22.24;31.55;98165.22;5070170;28;8851;-79
2023/10/21 05:15:48;;;;;;;;;6.60;6.00;;;;;22.25;31.61;98176.75;5071062;28;8953;-77
2023/10/21 05:18:17;;;;;;;;;5.60;5.60;;;;;22.34;31.39;98179.47;5075335;28;8846;-76
2023/10/21 05:20:46;;;;;;;;;7.40;7.40;;;;;22.53;31.20;98175.94;5070406;28;8862;-77
2023/10/21 05:23:15;;;;;;;;;9.00;7.00;;;;;22.43;31.47;98180.47;5053174;28;8846;-75
2023/10/21 05:25:44;;;;;;;;;6.40;6.20;;;;;22.35;31.60;98149.03;5068954;28;8855;-77
2023/10/21 05:28:13;;;;;;;;;6.00;5.00;;;;;22.49;31.83;98195.97;5069101;28;8890;-78
2023/10/21 05:30:43;;;;;;;;;6.40;5.80;;;;;22.47;31.73;98194.38;5067922;28;8968;-79
2023/10/21 05:33:13;;;;;;;;;6.00;5.80;;;;;22.55;31.71;98202.56;5053110;28;8867;-78
2023/10/21 05:35:42;;;;;;;;;5.80;5.80;;;;;22.59;31.77;98202.13;5068965;28;8951;-79
2023/10/21 05:38:11;;;;;;;;;7.80;7.80;;;;;22.61;31.84;98202.84;5068681;28;8908;-79
2023/10/21 05:40:43;;;;;;;;;6.00;5.80;;;;;22.66;31.91;98223.88;5068406;28;9069;-79
2023/10/21 05:43:12;;;;;;;;;6.00;5.20;;;;;22.70;31.78;98257.41;5067177;28;8949;-82
2023/10/21 05:45:41;;;;;;;;;2.20;2.20;;;;;22.71;31.73;98253.75;5066625;28;8844;-77
2023/10/21 05:48:10;;;;;;;;;6.60;6.20;;;;;22.64;32.04;98267.81;5052118;28;8902;-76
2023/10/21 05:50:40;;;;;;;;;6.00;6.00;;;;;22.58;31.90;98280.81;5068019;28;8852;-77
2023/10/21 05:53:09;;;;;;;;;8.60;5.00;;;;;22.56;31.91;98282.78;5068123;28;8891;-77
2023/10/21 05:55:41;;;;;;;;;8.60;7.20;;;;;22.69;31.83;98285.16;5001738;28;8958;-78
2023/10/21 05:58:10;;;;;;;;;7.20;5.80;;;;;22.75;31.71;98284.63;5086253;28;8931;-78
2023/10/21 06:00:39;;;;;;;;;9.80;7.60;;;;;22.80;31.52;98303.78;5068769;28;8862;-77
2023/10/21 06:03:08;;;;;;;;;7.20;7.20;;;;;22.70;31.70;98296.75;5069384;28;8846;-79
2023/10/21 06:05:39;;;;;;;;;6.40;6.00;;;;;22.77;31.55;98306.75;5069366;28;8858;-77
2023/10/21 06:08:10;;;;;;;;;9.20;8.00;;;;;22.54;31.92;98306.19;5069428;28;8860;-78
2023/10/21 06:10:42;;;;;;;;;10.80;6.00;;;;;22.61;31.78;98298.41;5070441;28;8981;-78
2023/10/21 06:13:11;;;;;;;;;8.40;7.40;;;;;22.56;32.07;98320.28;5073404;28;8854;-79
2023/10/21 06:15:40;;;;;;;;;8.00;7.00;;;;;22.65;31.88;98321.25;5068011;28;8851;-77
2023/10/21 06:18:09;;;;;;;;;7.20;6.80;;;;;22.44;32.12;98323.22;5034008;28;8847;-79
2023/10/21 06:20:38;;;;;;;;;9.00;7.00;;;;;22.44;32.12;98324.06;5067721;28;8937;-80
2023/10/21 06:23:09;;;;;;;;;6.00;6.00;;;;;22.42;32.28;98328.69;5071359;28;8988;-79
2023/10/21 06:25:38;;;;;;;;;8.40;7.00;;;;;22.36;32.09;98321.22;5069544;28;8894;-81
2023/10/21 06:28:07;;;;;;;;;7.80;7.40;;;;;22.35;32.24;98338.25;5070554;28;8863;-78
2023/10/21 06:30:36;;;;;;;;;7.20;6.40;;;;;22.37;32.19;98334.47;5071089;28;8891;-81
2023/10/21 06:33:05;;;;;;;;;7.60;6.60;;;;;22.25;32.62;98338.25;5068136;28;8947;-81
2023/10/21 06:35:34;;;;;;;;;9.00;7.40;;;;;22.23;32.44;98346.38;5066901;28;8931;-84
2023/10/21 06:38:04;;;;;;;;;9.40;6.80;;;;;22.41;32.33;98359.13;5050477;28;8995;-79
2023/10/21 06:40:35;;;;;;;;;8.40;7.40;;;;;22.39;32.28;98345.03;5050030;28;8832;-79
2023/10/21 06:43:07;;;;;;;;;7.00;7.00;;;;;22.40;32.30;98363.63;5066167;28;8872;-77
2023/10/21 06:45:36;;;;;;;;;11.00;8.80;;;;;22.40;32.12;98360.97;5066231;28;8851;-77
2023/10/21 06:48:08;;;;;;;;;8.20;6.60;;;;;22.51;32.35;98370.72;5065225;28;8860;-71
2023/10/21 06:50:37;;;;;;;;;9.60;6.40;;;;;22.36;32.02;98378.28;5052083;28;8886;-69
2023/10/21 06:53:06;;;;;;;;;8.60;8.60;;;;;22.43;31.99;98378.59;5066340;28;8854;-72
2023/10/21 06:55:43;;;;;;;;;9.20;7.60;;;;;22.53;31.86;98375.94;5068699;28;8843;-70
2023/10/21 06:58:12;;;;;;;;;12.00;6.80;;;;;22.66;31.86;98383.72;5068217;28;8970;-70
2023/10/21 07:00:41;;;;;;;;;8.20;8.00;;;;;22.74;31.23;98389.25;5067742;28;8904;-73
2023/10/21 07:03:11;;;;;;;;;7.00;6.60;;;;;22.56;31.45;98381.00;5069253;28;8865;-79
2023/10/21 07:05:41;;;;;;;;;8.20;7.60;;;;;22.41;31.71;98397.47;5032255;28;8842;-77
2023/10/21 07:08:10;;;;;;;;;7.00;7.00;;;;;22.45;31.42;98398.06;5020629;28;8818;-77
2023/10/21 07:10:40;;;;;;;;;9.60;7.40;;;;;22.37;31.65;98412.13;5053957;28;8874;-78
2023/10/21 07:13:10;;;;;;;;;7.60;5.60;;;;;22.36;31.63;98417.63;5068425;28;8893;-75
2023/10/21 07:15:40;;;;;;;;;8.20;8.20;;;;;22.29;31.57;98417.28;5069520;28;8896;-80
2023/10/21 07:18:09;;;;;;;;;7.60;7.40;;;;;22.34;31.40;98432.97;5069274;28;8868;-80
2023/10/21 07:20:37;;;;;;;;;7.60;6.00;;;;;22.31;31.61;98425.19;5066482;28;8878;-72
2023/10/21 07:23:08;;;;;;;;;10.20;9.40;;;;;22.28;31.60;98426.31;5026412;28;8904;-71
2023/10/21 07:25:38;;;;;;;;;9.20;8.20;;;;;22.40;31.34;98427.06;5070726;28;8851;-73
2023/10/21 07:28:07;;;;;;;;;7.20;7.20;;;;;22.53;31.44;98433.03;5068548;28;8880;-73
2023/10/21 07:30:37;;;;;;;;;8.60;7.60;;;;;22.53;31.20;98429.50;5049068;28;8858;-79
2023/10/21 07:33:06;;;;;;;;;11.80;11.80;;;;;22.52;31.31;98431.31;5067854;28;8866;-81
2023/10/21 07:35:35;;;;;;;;;11.40;10.80;;;;;22.71;31.11;98424.31;5067747;28;8877;-79
2023/10/21 07:38:04;;;;;;;;;12.80;10.80;;;;;22.64;31.48;98433.88;5053856;28;8906;-76
2023/10/21 07:40:33;;;;;;;;;13.80;11.40;;;;;22.66;31.51;98437.31;5032861;28;8834;-79
2023/10/21 07:43:03;;;;;;;;;10.60;9.40;;;;;22.75;31.46;98447.19;5067627;28;9094;-80
2023/10/21 07:45:32;;;;;;;;;4.80;4.00;;;;;22.55;31.53;98447.13;5068426;28;8870;-81
2023/10/21 07:48:03;;;;;;;;;8.00;7.60;;;;;22.61;31.76;98445.75;5069000;28;8866;-82
2023/10/21 07:50:32;;;;;;;;;12.80;10.80;;;;;22.59;31.90;98448.53;5033880;28;8850;-81
2023/10/21 07:53:01;;;;;;;;;14.20;12.00;;;;;22.51;31.95;98455.59;5050134;28;8842;-80
2023/10/21 07:55:30;;;;;;;;;11.40;10.00;;;;;22.56;32.24;98451.50;5067502;28;9697;-81
2023/10/21 07:57:59;;;;;;;;;12.80;11.40;;;;;22.39;32.36;98453.00;5069594;28;8850;-80
2023/10/21 08:00:27;;;;;;;;;11.60;9.80;;;;;22.49;32.50;98454.88;5074961;28;8862;-81
2023/10/21 08:02:58;;;;;;;;;10.00;9.00;;;;;22.44;32.60;98459.78;5070898;28;8886;-81
2023/10/21 08:05:29;;;;;;;;;9.60;7.00;;;;;22.47;32.85;98465.72;5086352;28;9698;-82
2023/10/21 08:07:58;;;;;;;;;10.00;9.40;;;;;22.51;32.60;98466.28;5054864;28;8852;-82
2023/10/21 08:10:28;;;;;;;;;8.40;8.00;;;;;22.55;32.57;98471.22;5070400;28;8874;-80
2023/10/21 08:12:57;;;;;;;;;7.40;6.80;;;;;22.34;32.75;98467.78;5087377;28;8988;-81
2023/10/21 08:15:27;;;;;;;;;10.40;8.40;;;;;22.37;33.03;98471.03;5069161;28;8857;-80
2023/10/21 08:17:56;;;;;;;;;13.40;10.60;;;;;22.38;32.73;98488.78;5085376;28;8947;-80
2023/10/21 08:20:25;;;;;;;;;9.40;7.60;;;;;22.56;32.52;98480.09;5069595;28;8854;-82
2023/10/21 08:22:56;;;;;;;;;9.40;7.20;;;;;22.84;32.21;98493.75;5058055;28;8992;-81
2023/10/21 08:25:25;;;;;;;;;10.80;10.00;;;;;22.92;31.90;98486.75;5047573;28;8842;-80
2023/10/21 08:27:56;;;;;;;;;12.40;11.20;;;;;22.93;31.55;98495.63;5049138;28;8856;-80
2023/10/21 08:30:25;;;;;;;;;12.20;11.20;;;;;22.68;31.89;98488.91;5085003;28;8979;-80
2023/10/21 08:32:54;;;;;;;;;10.00;9.80;;;;;22.64;31.95;98482.97;5085606;28;8880;-82
2023/10/21 08:35:23;;;;;;;;;9.60;8.60;;;;;22.80;31.43;98482.44;5067219;28;8886;-82
2023/10/21 08:37:52;;;;;;;;;11.60;10.40;;;;;22.81;31.33;98481.47;5066322;28;8935;-81
2023/10/21 08:40:22;;;;;;;;;12.60;11.40;;;;;23.00;31.08;98476.19;5070431;28;8830;-83
2023/10/21 08:42:52;;;;;;;;;14.40;9.60;;;;;22.94;31.01;98470.53;5051846;28;8904;-81
2023/10/21 08:45:32;;;;;;;;;13.40;11.20;;;;;22.88;31.04;98473.72;5066211;28;8862;-83
2023/10/21 08:48:03;;;;;;;;;12.60;12.60;;;;;23.03;31.11;98474.22;5067252;28;8858;-83
2023/10/21 08:50:35;;;;;;;;;10.40;9.40;;;;;23.16;31.04;98472.97;5050500;28;8858;-82
2023/10/21 08:53:06;;;;;;;;;13.60;11.20;;;;;23.18;30.67;98478.19;5049027;28;8853;-83
2023/10/21 08:55:40;;;;;;;;;14.20;13.00;;;;;23.34;29.96;98473.13;4986881;28;8868;-82
2023/10/21 08:58:10;;;;;;;;;9.00;9.00;;;;;23.43;29.72;98473.28;5053820;28;8897;-81
2023/10/21 09:00:41;;;;;;;;;10.00;8.40;;;;;23.43;29.54;98486.69;5055239;28;8842;-83
2023/10/21 09:03:12;;;;;;;;;14.00;13.60;;;;;23.54;29.35;98490.09;5073103;28;9021;-85
2023/10/21 09:06:11;;;;;;;;;17.80;14.00;;;;;23.75;29.32;98483.72;5019806;28;8992;-83
2023/10/21 09:08:42;;;;;;;;;16.80;15.00;;;;;23.48;28.87;98489.78;5016990;28;8842;-82
2023/10/21 09:11:18;;;;;;;;;12.40;12.20;;;;;23.68;28.95;98483.47;5052169;28;8951;-84
2023/10/21 09:13:48;;;;;;;;;13.80;13.40;;;;;23.62;29.03;98486.72;5037313;28;8884;-82
2023/10/21 09:16:20;;;;;;;;;12.40;11.20;;;;;23.78;28.41;98486.97;5047664;28;8853;-83
2023/10/21 09:19:01;;;;;;;;;16.40;12.40;;;;;23.80;28.62;98481.47;5067406;28;8892;-81
2023/10/21 09:21:36;;;;;;;;;12.60;10.20;;;;;23.84;28.51;98482.03;5052058;28;9634;-83
2023/10/21 09:24:06;;;;;;;;;14.00;14.00;;;;;23.82;27.76;98492.06;5067001;28;8862;-81
2023/10/21 09:26:38;;;;;;;;;13.60;11.40;;;;;23.81;27.13;98493.91;5073100;28;8850;-81
2023/10/21 09:29:10;;;;;;;;;15.40;14.20;;;;;23.84;27.98;98498.16;5072084;28;8858;-81
2023/10/21 09:31:51;;;;;;;;;15.60;11.80;;;;;24.01;26.78;98492.03;5071581;28;8862;-81
2023/10/21 09:34:24;;;;;;;;;12.20;11.60;;;;;24.05;26.80;98493.44;5071271;28;8871;-81
2023/10/21 09:36:54;;;;;;;;;10.80;9.40;;;;;24.14;27.09;98495.28;5070483;28;8870;-80
2023/10/21 09:39:25;;;;;;;;;14.60;10.40;;;;;24.16;26.66;98492.47;5064705;28;8860;-79
2023/10/21 09:41:55;;;;;;;;;13.20;10.40;;;;;24.22;26.44;98489.19;5051159;28;8953;-79
2023/10/21 09:44:26;;;;;;;;;10.20;10.20;;;;;24.25;25.98;98491.59;5061380;28;8857;-80
2023/10/21 09:46:56;;;;;;;;;12.00;9.40;;;;;24.27;26.03;98483.41;5072264;28;9008;-80
2023/10/21 09:49:27;;;;;;;;;14.20;13.40;;;;;24.26;25.86;98484.38;5075677;28;8847;-81
2023/10/21 09:52:04;;;;;;;;;9.20;6.20;;;;;24.31;26.10;98485.63;5054202;28;8935;-80
2023/10/21 09:54:41;;;;;;;;;17.20;15.00;;;;;24.29;26.25;98486.78;5069247;28;8834;-80
2023/10/21 09:57:13;;;;;;;;;14.80;12.00;;;;;24.27;25.94;98478.88;5095576;28;8826;-80
2023/10/21 09:59:44;;;;;;;;;12.40;8.80;;;;;24.30;26.15;98475.03;5093171;28;8853;-80
2023/10/21 10:02:16;;;;;;;;;16.20;12.60;;;;;24.38;25.77;98463.56;5071504;28;8846;-80
2023/10/21 10:04:46;;;;;;;;;7.40;6.40;;;;;24.40;25.40;98470.50;5071819;28;8988;-80
2023/10/21 10:07:17;;;;;;;;;17.20;16.40;;;;;24.46;25.62;98464.53;5088747;28;8980;-81
2023/10/21 10:10:07;;;;;;;;;19.00;17.20;;;;;24.43;25.56;98462.13;5070071;28;8837;-80
2023/10/21 10:12:42;;;;;;;;;17.80;14.40;;;;;24.50;25.18;98470.44;5039023;28;9564;-80
2023/10/21 10:15:32;;;;;;;;;7.00;6.80;;;;;24.51;24.98;98470.31;5088635;28;8858;-80
2023/10/21 10:18:02;;;;;;;;;11.60;10.60;;;;;24.44;26.54;98469.19;5071336;28;8834;-80
2023/10/21 10:20:32;;;;;;;;;15.40;12.20;;;;;24.39;26.40;98458.03;5039354;28;8857;-80
2023/10/21 10:23:04;;;;;;;;;13.80;12.60;;;;;24.37;27.02;98451.13;5088491;28;8857;-82
2023/10/21 10:25:35;;;;;;;;;10.80;10.20;;;;;24.20;27.20;98442.00;5053767;28;8838;-82
2023/10/21 10:28:08;;;;;;;;;16.20;13.20;;;;;24.21;27.22;98446.41;5080869;28;8963;-83
2023/10/21 10:30:43;;;;;;;;;12.20;10.80;;;;;24.23;27.22;98439.03;5053001;28;8866;-81
2023/10/21 10:33:15;;;;;;;;;10.20;9.40;;;;;24.16;26.47;98428.03;5068523;28;8892;-81
2023/10/21 10:35:49;;;;;;;;;14.00;11.60;;;;;24.27;26.89;98435.06;5085223;28;8842;-85
2023/10/21 10:38:20;;;;;;;;;10.80;10.80;;;;;24.29;26.18;98433.91;5068443;28;8862;-81
2023/10/21 10:40:51;;;;;;;;;11.80;8.80;;;;;24.31;26.57;98421.19;5084133;28;8850;-81
2023/10/21 10:43:22;;;;;;;;;9.60;8.40;;;;;24.30;25.91;98427.56;5083976;28;8874;-80
2023/10/21 10:45:51;;;;;;;;;11.20;9.40;;;;;24.34;26.02;98417.38;5069121;28;8819;-81
2023/10/21 10:48:21;;;;;;;;;11.40;9.20;;;;;24.34;25.67;98417.38;5070358;28;8889;-82
2023/10/21 10:51:00;;;;;;;;;10.20;8.80;;;;;24.49;25.65;98420.38;5071784;28;9004;-79
2023/10/21 10:53:29;;;;;;;;;13.80;10.40;;;;;24.40;25.89;98427.50;5067743;28;8858;-80
2023/10/21 10:55:58;;;;;;;;;13.20;13.20;;;;;24.39;26.42;98422.28;5067440;28;8843;-82
2023/10/21 10:58:29;;;;;;;;;16.80;15.40;;;;;24.38;26.38;98429.50;5069476;28;9623;-78
2023/10/21 11:00:58;;;;;;;;;12.20;12.00;;;;;24.43;25.95;98442.47;5069477;28;9522;-80
2023/10/21 11:03:28;;;;;;;;;16.20;13.40;;;;;24.45;26.15;98427.91;5050979;28;8914;-81
2023/10/21 11:05:59;;;;;;;;;14.20;13.20;;;;;24.51;25.77;98426.47;5065609;28;8850;-79
2023/10/21 11:08:31;;;;;;;;;14.00;13.60;;;;;24.50;26.13;98433.66;5067744;28;8867;-80
2023/10/21 11:11:03;;;;;;;;;14.20;11.40;;;;;24.54;25.64;98429.69;5067848;28;8925;-81
2023/10/21 11:13:34;;;;;;;;;13.40;10.40;;;;;24.53;25.59;98430.69;5067403;28;9074;-79
2023/10/21 11:16:05;;;;;;;;;10.20;9.80;;;;;24.57;26.13;98425.88;5069291;28;9611;-80
2023/10/21 11:18:36;;;;;;;;;10.60;9.00;;;;;24.57;25.75;98423.19;5068758;28;8873;-80
2023/10/21 11:21:06;;;;;;;;;13.60;13.60;;;;;24.59;25.68;98426.56;5069956;28;9689;-82
2023/10/21 11:23:36;;;;;;;;;12.60;11.60;;;;;24.69;25.61;98429.19;5065404;28;9662;-79
2023/10/21 11:26:07;;;;;;;;;14.80;14.00;;;;;24.77;25.42;98429.31;5068629;28;8981;-80
2023/10/21 11:28:39;;;;;;;;;10.60;7.60;;;;;24.73;25.31;98428.78;5068552;28;8866;-78
2023/10/21 11:31:09;;;;;;;;;15.20;12.60;;;;;24.69;25.44;98430.03;5056049;28;9014;-78
2023/10/21 11:33:38;;;;;;;;;12.60;12.20;;;;;24.77;25.10;98437.38;5069221;28;8890;-81
2023/10/21 11:36:08;;;;;;;;;13.40;12.40;;;;;24.79;24.94;98448.81;5074896;28;8858;-80
2023/10/21 11:38:37;;;;;;;;;19.60;14.60;;;;;24.86;24.95;98436.47;5018643;28;9749;-79
2023/10/21 11:41:13;;;;;;;;;17.00;14.00;;;;;24.97;25.16;98438.13;5078099;28;8834;-80
2023/10/21 11:43:48;;;;;;;;;11.40;10.80;;;;;24.93;24.92;98442.94;5087413;28;8901;-80
2023/10/21 11:46:18;;;;;;;;;12.60;12.60;;;;;24.82;25.02;98445.00;5018898;28;8863;-82
2023/10/21 11:48:50;;;;;;;;;13.60;11.60;;;;;24.87;25.55;98448.94;5067298;28;8866;-79
2023/10/21 11:51:19;;;;;;;;;14.00;13.40;;;;;24.84;25.22;98448.38;5081688;28;8877;-79